Time;durP1;ratioP1;P1;durP2;ratioP2;P2;SDS_P1;SDS_P2;PMS_P1;PMS_P2;Temp;Humidity;BMP_temperature;BMP_pressure;BME280_temperature;BME280_humidity;BME280_pressure;Samples;Min_cycle;Max_cycle;Signal;HPM_P1;HPM_P2
2022/05/19 00:02:06;;;;;;;4.60;4.37;;;20.50;99.90;;;;;;5030877;28;20222;-67
2022/05/19 00:04:32;;;;;;;4.77;4.57;;;20.50;99.90;;;;;;5033906;28;20199;-67
2022/05/19 00:06:58;;;;;;;4.90;4.60;;;20.40;99.90;;;;;;5034785;28;20267;-67
2022/05/19 00:09:24;;;;;;;5.07;4.77;;;20.40;99.90;;;;;;5034398;28;20584;-67
2022/05/19 00:11:51;;;;;;;4.63;4.33;;;20.30;99.90;;;;;;5033332;28;20317;-67
2022/05/19 00:14:17;;;;;;;4.60;4.30;;;20.30;99.90;;;;;;5032486;28;20200;-67
2022/05/19 00:16:43;;;;;;;4.53;4.27;;;20.30;99.90;;;;;;5033800;28;20776;-67
2022/05/19 00:19:10;;;;;;;5.10;4.70;;;20.30;99.90;;;;;;5034568;28;20174;-67
2022/05/19 00:21:37;;;;;;;5.10;4.90;;;20.30;99.90;;;;;;5034673;28;20683;-67
2022/05/19 00:24:03;;;;;;;5.37;5.07;;;20.30;99.90;;;;;;5034497;28;20281;-67
2022/05/19 00:26:29;;;;;;;5.23;4.93;;;20.30;99.90;;;;;;5034029;28;20379;-67
2022/05/19 00:28:54;;;;;;;5.00;4.80;;;20.30;99.90;;;;;;5034572;28;20708;-67
2022/05/19 00:31:20;;;;;;;5.13;4.77;;;20.30;99.90;;;;;;5034089;28;20182;-67
2022/05/19 00:33:46;;;;;;;5.20;4.90;;;20.30;99.90;;;;;;5034542;28;20280;-67
2022/05/19 00:36:19;;;;;;;5.95;5.65;;;20.30;99.90;;;;;;5033749;28;20306;-67
2022/05/19 00:38:46;;;;;;;4.60;4.40;;;20.20;99.90;;;;;;5033974;28;20195;-67
2022/05/19 00:41:13;;;;;;;4.67;4.40;;;20.20;99.90;;;;;;5033834;28;20656;-67
2022/05/19 00:43:41;;;;;;;4.07;3.87;;;20.10;99.90;;;;;;5033993;28;20250;-67
2022/05/19 00:46:13;;;;;;;5.30;5.00;;;20.10;99.90;;;;;;5033631;28;20186;-67
2022/05/19 00:48:48;;;;;;;4.80;4.50;;;20.00;99.90;;;;;;5033857;28;20202;-67
2022/05/19 00:51:15;;;;;;;4.67;4.37;;;20.00;99.90;;;;;;5033952;28;20425;-67
2022/05/19 00:53:51;;;;;;;4.70;4.50;;;19.90;99.90;;;;;;5034190;28;20195;-67
2022/05/19 00:56:20;;;;;;;4.47;4.27;;;19.90;99.90;;;;;;5033359;28;20198;-67
2022/05/19 00:58:56;;;;;;;4.40;4.10;;;19.80;99.90;;;;;;5033889;28;20653;-66
2022/05/19 01:01:23;;;;;;;4.33;4.13;;;19.80;99.90;;;;;;5033612;28;20199;-67
2022/05/19 01:03:57;;;;;;;4.30;4.10;;;19.80;99.90;;;;;;5032502;28;20559;-67
2022/05/19 01:06:24;;;;;;;4.27;4.07;;;19.80;99.90;;;;;;5033258;28;20167;-67
2022/05/19 01:09:04;;;;;;;5.07;4.77;;;19.70;99.90;;;;;;5033846;28;20262;-67
2022/05/19 01:11:30;;;;;;;4.90;4.60;;;19.70;99.90;;;;;;5032543;28;20262;-67
2022/05/19 01:13:56;;;;;;;4.30;4.10;;;19.70;99.90;;;;;;5031368;28;20206;-67
2022/05/19 01:16:23;;;;;;;5.13;4.63;;;19.60;99.90;;;;;;5032953;28;20176;-67
2022/05/19 01:18:50;;;;;;;4.60;4.40;;;19.60;99.90;;;;;;5033273;28;20183;-67
2022/05/19 01:21:18;;;;;;;4.60;4.30;;;19.70;99.90;;;;;;5033151;28;20231;-67
2022/05/19 01:24:16;;;;;;;4.60;4.40;;;19.60;99.90;;;;;;5033426;28;20191;-67
2022/05/19 01:26:45;;;;;;;5.03;4.73;;;19.60;99.90;;;;;;5033188;28;20203;-67
2022/05/19 01:29:13;;;;;;;4.70;4.50;;;19.60;99.90;;;;;;5033075;28;20650;-67
2022/05/19 01:31:47;;;;;;;4.63;4.43;;;19.60;99.90;;;;;;5032802;28;20171;-67
2022/05/19 01:34:13;;;;;;;4.73;4.53;;;19.60;99.90;;;;;;5033059;28;20202;-67
2022/05/19 01:36:39;;;;;;;4.90;4.60;;;19.60;99.90;;;;;;5032665;28;20180;-67
2022/05/19 01:39:21;;;;;;;4.30;4.10;;;19.60;99.90;;;;;;5032578;28;20195;-67
2022/05/19 01:42:08;;;;;;;4.00;3.80;;;19.60;99.90;;;;;;5033064;28;20209;-67
2022/05/19 01:44:49;;;;;;;4.50;4.20;;;19.60;99.90;;;;;;5032792;28;20353;-67
2022/05/19 01:47:26;;;;;;;4.70;4.40;;;19.50;99.90;;;;;;5032865;28;20202;-67
2022/05/19 01:50:02;;;;;;;4.37;4.17;;;19.50;99.90;;;;;;5032873;28;20175;-67
2022/05/19 01:53:00;;;;;;;4.13;3.93;;;19.50;99.90;;;;;;5031447;28;20179;-67
2022/05/19 01:55:56;;;;;;;4.03;3.83;;;19.50;99.90;;;;;;5023147;28;20325;-67
2022/05/19 01:58:45;;;;;;;4.50;4.30;;;19.50;99.90;;;;;;5015773;28;20686;-67
2022/05/19 02:01:14;;;;;;;4.30;4.03;;;19.40;99.90;;;;;;5032331;28;20294;-67
2022/05/19 02:03:54;;;;;;;4.47;4.23;;;19.40;99.90;;;;;;5032645;28;20258;-67
2022/05/19 02:06:34;;;;;;;3.97;3.77;;;19.40;99.90;;;;;;5030730;28;20270;-67
2022/05/19 02:09:01;;;;;;;4.40;4.20;;;19.40;99.90;;;;;;5012951;28;20183;-66
2022/05/19 02:11:42;;;;;;;3.93;3.73;;;19.40;99.90;;;;;;5030930;28;20271;-67
2022/05/19 02:14:12;;;;;;;4.30;4.10;;;19.30;99.90;;;;;;5032218;28;20198;-66
2022/05/19 02:16:39;;;;;;;4.70;4.20;;;19.30;99.90;;;;;;5031895;28;20186;-67
2022/05/19 02:19:06;;;;;;;4.40;4.10;;;19.30;99.90;;;;;;5032115;28;20179;-67
2022/05/19 02:21:32;;;;;;;4.43;4.13;;;19.30;99.90;;;;;;5032278;28;20256;-66
2022/05/19 02:24:01;;;;;;;4.37;4.17;;;19.30;99.90;;;;;;5031774;28;20578;-67
2022/05/19 02:26:33;;;;;;;4.43;4.13;;;19.30;99.90;;;;;;5030766;28;20219;-67
2022/05/19 02:29:05;;;;;;;4.33;4.13;;;19.30;99.90;;;;;;5031958;28;20179;-67
2022/05/19 02:31:30;;;;;;;4.27;4.07;;;19.30;99.90;;;;;;5031215;28;20183;-67
2022/05/19 02:33:56;;;;;;;4.47;4.23;;;19.20;99.90;;;;;;5030631;28;20203;-67
2022/05/19 02:36:22;;;;;;;4.47;4.27;;;19.20;99.90;;;;;;5031373;28;20175;-67
2022/05/19 02:38:47;;;;;;;4.30;4.10;;;19.20;99.90;;;;;;5031883;28;20179;-67
2022/05/19 02:41:13;;;;;;;4.53;4.23;;;19.10;99.90;;;;;;5031769;28;20199;-67
2022/05/19 02:43:38;;;;;;;4.60;4.40;;;19.10;99.90;;;;;;5031634;28;20207;-66
2022/05/19 02:46:05;;;;;;;4.83;4.63;;;19.10;99.90;;;;;;5031576;28;20176;-66
2022/05/19 02:48:32;;;;;;;4.60;4.40;;;19.10;99.90;;;;;;5032003;28;20229;-67
2022/05/19 02:50:59;;;;;;;4.50;4.20;;;19.00;99.90;;;;;;5031810;28;20186;-67
2022/05/19 02:53:25;;;;;;;4.43;4.17;;;19.10;99.90;;;;;;5031631;28;20203;-67
2022/05/19 02:55:50;;;;;;;4.97;4.73;;;19.00;99.90;;;;;;5031671;28;20563;-67
2022/05/19 02:58:16;;;;;;;5.00;4.80;;;19.00;99.90;;;;;;5031147;28;20692;-67
2022/05/19 03:00:45;;;;;;;4.50;4.30;;;19.00;99.90;;;;;;5031559;28;20207;-67
2022/05/19 03:03:11;;;;;;;4.63;4.43;;;19.00;99.90;;;;;;5031490;28;20286;-67
2022/05/19 03:05:37;;;;;;;4.40;4.20;;;19.00;99.90;;;;;;5031181;28;20239;-67
2022/05/19 03:08:04;;;;;;;4.27;4.07;;;19.00;99.90;;;;;;5031587;28;20263;-67
2022/05/19 03:10:30;;;;;;;4.77;4.53;;;19.00;99.90;;;;;;5031340;28;20250;-67
2022/05/19 03:12:56;;;;;;;4.27;4.07;;;19.00;99.90;;;;;;5031371;28;20361;-67
2022/05/19 03:15:23;;;;;;;5.27;4.97;;;18.90;99.90;;;;;;5029581;28;20175;-67
2022/05/19 03:17:48;;;;;;;4.60;4.30;;;18.90;99.90;;;;;;5031425;28;20175;-67
2022/05/19 03:20:15;;;;;;;4.83;4.63;;;18.90;99.90;;;;;;5031278;28;20663;-68
2022/05/19 03:22:40;;;;;;;4.87;4.57;;;18.80;99.90;;;;;;5030400;28;20204;-68
2022/05/19 03:25:07;;;;;;;5.00;4.70;;;18.70;99.90;;;;;;5030880;28;20516;-68
2022/05/19 03:27:35;;;;;;;5.27;4.97;;;18.70;99.90;;;;;;5031034;28;20172;-66
2022/05/19 03:30:00;;;;;;;5.37;5.07;;;18.60;99.90;;;;;;5030785;28;20203;-66
2022/05/19 03:32:27;;;;;;;4.60;4.40;;;18.50;99.90;;;;;;5029808;28;20659;-66
2022/05/19 03:34:53;;;;;;;5.20;4.90;;;18.50;99.90;;;;;;5030898;28;20183;-66
2022/05/19 03:37:18;;;;;;;5.03;4.83;;;18.50;99.90;;;;;;5031617;28;20655;-66
2022/05/19 03:39:44;;;;;;;4.90;4.60;;;18.40;99.90;;;;;;5035606;28;20225;-66
2022/05/19 03:42:10;;;;;;;5.33;5.13;;;18.40;99.90;;;;;;5034886;28;20539;-67
2022/05/19 03:44:36;;;;;;;5.30;5.10;;;18.40;99.90;;;;;;5035318;28;20207;-67
2022/05/19 03:47:03;;;;;;;4.80;4.50;;;18.40;99.90;;;;;;5033596;28;20168;-67
2022/05/19 03:49:29;;;;;;;5.00;4.80;;;18.40;99.90;;;;;;5035248;28;20179;-67
2022/05/19 03:51:54;;;;;;;5.70;5.40;;;18.40;99.90;;;;;;5035190;28;20287;-67
2022/05/19 03:54:20;;;;;;;5.43;5.13;;;18.40;99.90;;;;;;5034932;28;20211;-67
2022/05/19 03:56:46;;;;;;;5.43;5.13;;;18.40;99.90;;;;;;5034649;28;20179;-67
2022/05/19 03:59:11;;;;;;;4.87;4.67;;;18.50;99.90;;;;;;5035059;28;20225;-67
2022/05/19 04:01:37;;;;;;;4.83;4.53;;;18.50;99.90;;;;;;5033336;28;20214;-67
2022/05/19 04:04:03;;;;;;;4.50;4.30;;;18.60;99.90;;;;;;5034991;28;20219;-67
2022/05/19 04:06:29;;;;;;;5.00;4.70;;;18.60;99.90;;;;;;5034443;28;20314;-67
2022/05/19 04:08:55;;;;;;;4.60;4.30;;;18.70;99.90;;;;;;5034419;28;20183;-67
2022/05/19 04:11:20;;;;;;;4.60;4.40;;;18.70;99.90;;;;;;5034570;28;20194;-67
2022/05/19 04:13:46;;;;;;;4.63;4.37;;;18.80;99.90;;;;;;5033693;28;20195;-67
2022/05/19 04:16:11;;;;;;;4.47;4.27;;;18.90;99.90;;;;;;5033940;28;20211;-67
2022/05/19 04:18:38;;;;;;;4.87;4.57;;;19.00;99.90;;;;;;5034744;28;20191;-67
2022/05/19 04:21:04;;;;;;;4.60;4.40;;;19.00;99.90;;;;;;5034108;28;20695;-67
2022/05/19 04:23:30;;;;;;;4.90;4.60;;;19.10;99.90;;;;;;5034328;28;20199;-67
2022/05/19 04:25:56;;;;;;;4.27;4.07;;;19.20;99.90;;;;;;5034220;28;20662;-67
2022/05/19 04:28:22;;;;;;;4.80;4.50;;;19.20;99.90;;;;;;5034207;28;20543;-67
2022/05/19 04:30:47;;;;;;;5.17;4.53;;;19.30;99.90;;;;;;5034335;28;20271;-67
2022/05/19 04:33:13;;;;;;;5.03;4.73;;;19.30;99.90;;;;;;5034208;28;20673;-67
2022/05/19 04:35:39;;;;;;;5.37;5.07;;;19.30;99.90;;;;;;5034930;28;20183;-67
2022/05/19 04:38:10;;;;;;;4.97;4.63;;;19.40;99.90;;;;;;5034551;28;20179;-67
2022/05/19 04:40:41;;;;;;;4.43;4.13;;;19.50;99.90;;;;;;5034337;28;20266;-68
2022/05/19 04:43:08;;;;;;;4.67;4.37;;;19.60;99.90;;;;;;5034097;28;20203;-67
2022/05/19 04:45:34;;;;;;;4.23;4.03;;;19.70;99.90;;;;;;5034000;28;20164;-67
2022/05/19 04:48:00;;;;;;;4.77;4.47;;;19.70;99.90;;;;;;5034003;28;20176;-67
2022/05/19 04:50:26;;;;;;;4.30;4.10;;;19.80;99.90;;;;;;5032873;28;20175;-67
2022/05/19 04:52:51;;;;;;;4.77;4.57;;;19.90;99.90;;;;;;5033535;28;20669;-67
2022/05/19 04:55:17;;;;;;;5.37;5.07;;;20.00;99.90;;;;;;5032401;28;20171;-67
2022/05/19 04:57:44;;;;;;;4.80;4.60;;;20.00;99.90;;;;;;5033679;28;20182;-66
2022/05/19 05:00:12;;;;;;;4.90;4.60;;;20.00;99.90;;;;;;5045795;28;20189;-66
2022/05/19 05:02:39;;;;;;;4.53;4.10;;;20.10;99.90;;;;;;5046763;28;20497;-67
2022/05/19 05:05:06;;;;;;;4.43;4.10;;;20.10;99.90;;;;;;5033524;28;20207;-66
2022/05/19 05:07:31;;;;;;;4.80;4.50;;;20.20;99.90;;;;;;5033979;28;20258;-66
2022/05/19 05:09:57;;;;;;;5.00;4.70;;;20.30;99.90;;;;;;5033490;28;20257;-66
2022/05/19 05:12:23;;;;;;;4.63;4.43;;;20.30;99.90;;;;;;5032556;28;20653;-66
2022/05/19 05:14:48;;;;;;;4.80;4.47;;;20.50;99.90;;;;;;5032929;28;20195;-66
2022/05/19 05:17:15;;;;;;;4.43;4.23;;;20.60;99.90;;;;;;5033171;28;20411;-66
2022/05/19 05:19:41;;;;;;;4.47;4.20;;;20.80;99.90;;;;;;5032095;28;20179;-66
2022/05/19 05:22:07;;;;;;;4.90;4.70;;;21.00;99.90;;;;;;5032979;28;20218;-66
2022/05/19 05:24:33;;;;;;;4.45;4.15;;;21.20;99.90;;;;;;5031389;28;20274;-66
2022/05/19 05:26:58;;;;;;;4.07;3.88;;;21.50;99.90;;;;;;5033660;28;20179;-67
2022/05/19 05:29:24;;;;;;;4.07;3.88;;;21.60;99.90;;;;;;5033006;28;20183;-67
2022/05/19 05:31:50;;;;;;;3.90;3.70;;;21.90;99.90;;;;;;5033189;28;20167;-67
2022/05/19 05:34:16;;;;;;;4.40;4.20;;;22.10;99.90;;;;;;5031273;28;20672;-66
2022/05/19 05:36:41;;;;;;;3.85;3.65;;;22.30;99.90;;;;;;5033049;28;20167;-67
2022/05/19 05:39:07;;;;;;;4.25;4.05;;;22.50;99.90;;;;;;5033141;28;20179;-67
2022/05/19 05:41:33;;;;;;;4.00;3.80;;;22.50;99.90;;;;;;5033256;28;20290;-67
2022/05/19 05:43:58;;;;;;;4.13;3.92;;;22.40;99.90;;;;;;5032829;28;20211;-66
2022/05/19 05:46:24;;;;;;;3.92;3.72;;;22.30;99.90;;;;;;5032541;28;20625;-66
2022/05/19 05:48:51;;;;;;;4.80;4.50;;;22.10;99.90;;;;;;5032924;28;20172;-66
2022/05/19 05:51:16;;;;;;;5.47;5.18;;;22.00;99.90;;;;;;5032745;28;20305;-66
2022/05/19 05:53:44;;;;;;;4.82;4.43;;;21.90;99.90;;;;;;5031435;28;20207;-66
2022/05/19 05:56:13;;;;;;;5.22;4.93;;;21.80;99.90;;;;;;5031130;28;20313;-66
2022/05/19 05:58:39;;;;;;;5.03;4.73;;;21.70;99.90;;;;;;5032299;28;20226;-66
2022/05/19 06:01:08;;;;;;;4.43;4.13;;;21.60;99.90;;;;;;5032239;28;20206;-66
2022/05/19 06:03:34;;;;;;;6.57;6.18;;;21.70;99.90;;;;;;5028811;28;20203;-67
2022/05/19 06:06:01;;;;;;;4.15;3.92;;;22.10;99.90;;;;;;5030575;28;20178;-66
2022/05/19 06:08:27;;;;;;;4.55;4.25;;;22.50;99.90;;;;;;5032120;28;20171;-66
2022/05/19 06:10:53;;;;;;;4.03;3.83;;;22.90;99.90;;;;;;5031698;28;20187;-66
2022/05/19 06:13:19;;;;;;;4.45;4.18;;;23.50;99.90;;;;;;5032284;28;20206;-66
2022/05/19 06:15:47;;;;;;;4.13;3.83;;;24.10;99.90;;;;;;5030770;28;20191;-67
2022/05/19 06:18:13;;;;;;;4.22;4.03;;;24.80;99.90;;;;;;5028898;28;20548;-66
2022/05/19 06:20:39;;;;;;;4.05;3.63;;;25.70;99.90;;;;;;5020184;28;20179;-67
2022/05/19 06:23:06;;;;;;;4.22;4.00;;;26.50;99.90;;;;;;5031545;28;20233;-66
2022/05/19 06:25:32;;;;;;;4.43;4.22;;;27.10;99.90;;;;;;5032004;28;20178;-66
2022/05/19 06:28:00;;;;;;;3.58;3.35;;;27.80;99.90;;;;;;5036446;28;20171;-67
2022/05/19 06:30:27;;;;;;;3.78;3.58;;;28.20;99.90;;;;;;5051960;28;20174;-67
2022/05/19 06:32:53;;;;;;;4.15;3.90;;;28.50;99.90;;;;;;5052090;28;20194;-66
2022/05/19 06:35:22;;;;;;;3.92;3.63;;;28.50;99.90;;;;;;5039488;28;20179;-67
2022/05/19 06:37:48;;;;;;;3.92;3.67;;;28.60;99.90;;;;;;5031904;28;20202;-66
2022/05/19 06:40:15;;;;;;;3.97;3.78;;;28.40;99.90;;;;;;5031825;28;20633;-67
2022/05/19 06:42:42;;;;;;;3.80;3.50;;;28.30;99.90;;;;;;5031667;28;20199;-66
2022/05/19 06:45:09;;;;;;;3.85;3.55;;;28.30;99.90;;;;;;5031226;28;20195;-66
2022/05/19 06:47:36;;;;;;;3.70;3.50;;;28.40;99.90;;;;;;5031729;28;20190;-66
2022/05/19 06:50:04;;;;;;;3.92;3.63;;;28.20;99.90;;;;;;5031337;28;20207;-66
2022/05/19 06:52:32;;;;;;;4.10;3.80;;;28.00;99.90;;;;;;5031535;28;20580;-66
2022/05/19 06:55:00;;;;;;;4.13;3.83;;;27.80;99.90;;;;;;5031476;28;20533;-67
2022/05/19 06:57:28;;;;;;;3.83;3.50;;;27.30;99.90;;;;;;5031804;28;20692;-67
2022/05/19 06:59:54;;;;;;;4.32;4.10;;;27.10;99.90;;;;;;5031413;28;20218;-67
2022/05/19 07:02:22;;;;;;;4.78;4.38;;;27.00;99.90;;;;;;5030650;28;20261;-67
2022/05/19 07:04:47;;;;;;;3.95;3.72;;;26.90;99.90;;;;;;5031431;28;20199;-68
2022/05/19 07:07:14;;;;;;;4.57;4.18;;;26.80;99.90;;;;;;5031256;28;20176;-66
2022/05/19 07:09:40;;;;;;;4.00;3.80;;;26.80;99.90;;;;;;5031516;28;20474;-66
2022/05/19 07:12:07;;;;;;;3.90;3.70;;;27.00;99.90;;;;;;5030662;28;20270;-66
2022/05/19 07:14:33;;;;;;;4.57;4.22;;;27.30;99.90;;;;;;5030606;28;20707;-66
2022/05/19 07:16:59;;;;;;;3.65;3.45;;;27.60;99.90;;;;;;5031145;28;20588;-66
2022/05/19 07:22:16;;;;;;;4.57;4.28;;;28.50;99.90;;;;;;5031059;28;20734;-66
2022/05/19 07:24:42;;;;;;;3.67;3.38;;;28.80;99.90;;;;;;5030516;28;20294;-66
2022/05/19 07:27:07;;;;;;;3.53;3.33;;;29.10;99.90;;;;;;5029761;28;20267;-66
2022/05/19 07:29:33;;;;;;;3.63;3.40;;;29.60;99.90;;;;;;5030603;28;20179;-66
2022/05/19 07:32:01;;;;;;;3.30;3.10;;;30.00;99.90;;;;;;5031286;28;20182;-66
2022/05/19 07:34:28;;;;;;;3.67;3.40;;;30.00;99.90;;;;;;5031726;28;20199;-65
2022/05/19 07:36:54;;;;;;;3.80;3.60;;;29.70;99.90;;;;;;5035845;28;20562;-65
2022/05/19 07:39:20;;;;;;;3.90;3.70;;;29.40;99.90;;;;;;5030835;28;20260;-66
2022/05/19 07:41:47;;;;;;;4.15;3.88;;;28.90;99.90;;;;;;5030584;28;20786;-66
2022/05/19 07:44:13;;;;;;;3.40;3.20;;;28.30;99.90;;;;;;5030684;28;20203;-66
2022/05/19 07:46:39;;;;;;;5.13;4.72;;;27.90;99.90;;;;;;5030927;28;20259;-66
2022/05/19 07:49:06;;;;;;;4.13;3.88;;;27.60;99.90;;;;;;5030733;28;20244;-66
2022/05/19 07:51:36;;;;;;;3.88;3.67;;;27.50;99.90;;;;;;5031389;28;20183;-66
2022/05/19 07:54:10;;;;;;;3.40;3.22;;;27.40;99.90;;;;;;5030776;28;20199;-66
2022/05/19 07:56:36;;;;;;;3.90;3.60;;;27.30;99.90;;;;;;5030311;28;20584;-66
2022/05/19 07:59:02;;;;;;;3.80;3.60;;;27.40;99.90;;;;;;5030643;28;20577;-66
2022/05/19 08:01:29;;;;;;;4.03;3.83;;;27.40;99.90;;;;;;5031039;28;20202;-66
2022/05/19 08:03:58;;;;;;;3.88;3.67;;;27.30;99.90;;;;;;5030550;28;20712;-66
2022/05/19 08:06:23;;;;;;;5.45;4.55;;;27.30;99.90;;;;;;5030701;28;20230;-66
2022/05/19 08:08:50;;;;;;;5.47;5.18;;;27.20;99.90;;;;;;5030585;28;20191;-66
2022/05/19 08:11:15;;;;;;;4.90;4.68;;;27.10;99.90;;;;;;5030222;28;20184;-66
2022/05/19 08:16:25;;;;;;;4.90;4.20;;;27.50;99.90;;;;;;5030955;28;20306;-66
2022/05/19 08:18:50;;;;;;;3.70;3.50;;;28.20;99.90;;;;;;5030490;28;20283;-66
2022/05/19 08:21:16;;;;;;;3.72;3.53;;;28.90;99.90;;;;;;5030780;28;20195;-66
2022/05/19 08:23:45;;;;;;;3.70;3.50;;;29.60;99.90;;;;;;5031833;28;20609;-66
2022/05/19 08:26:12;;;;;;;6.22;3.10;;;30.00;99.90;;;;;;5037288;28;20167;-66
2022/05/19 08:28:39;;;;;;;3.42;3.22;;;30.10;99.90;;;;;;5054484;28;20250;-66
2022/05/19 08:31:18;;;;;;;3.20;3.00;;;30.10;99.90;;;;;;5043679;28;20266;-66
2022/05/19 08:33:46;;;;;;;3.28;3.08;;;30.30;99.90;;;;;;5034350;28;20267;-66
2022/05/19 08:36:12;;;;;;;4.85;3.17;;;30.30;99.90;;;;;;5031360;28;20274;-66
2022/05/19 08:38:39;;;;;;;3.20;3.00;;;30.50;99.90;;;;;;5034215;28;20258;-66
2022/05/19 08:41:06;;;;;;;3.20;3.00;;;30.40;99.90;;;;;;5033955;28;20690;-66
2022/05/19 08:43:58;;;;;;;4.47;3.60;;;30.10;99.90;;;;;;5033599;28;20282;-66
2022/05/19 08:46:41;;;;;;;3.88;3.65;;;29.90;99.90;;;;;;5032906;28;20187;-66
2022/05/19 08:49:19;;;;;;;3.47;3.28;;;29.60;99.90;;;;;;5032992;28;20183;-66
2022/05/19 08:51:56;;;;;;;3.95;3.75;;;29.30;99.90;;;;;;5032718;28;20715;-66
2022/05/19 08:54:24;;;;;;;4.10;3.90;;;29.00;99.90;;;;;;5033886;28;20203;-66
2022/05/19 08:57:16;;;;;;;4.25;3.92;;;28.80;99.90;;;;;;5033566;28;20179;-66
2022/05/19 09:00:02;;;;;;;3.70;3.50;;;28.70;99.90;;;;;;5037311;28;20175;-66
2022/05/19 09:02:56;;;;;;;3.60;3.40;;;29.20;99.90;;;;;;5053291;28;20198;-66
2022/05/19 09:05:35;;;;;;;3.53;3.30;;;29.90;99.90;;;;;;5045507;28;20539;-66
2022/05/19 09:08:13;;;;;;;4.05;3.00;;;30.60;99.90;;;;;;5033659;28;20532;-66
2022/05/19 09:10:44;;;;;;;3.58;3.38;;;31.20;99.90;;;;;;5033646;28;20214;-66
2022/05/19 09:13:25;;;;;;;3.03;2.83;;;31.40;99.90;;;;;;5033351;28;20608;-66
2022/05/19 09:15:52;;;;;;;3.15;2.95;;;31.80;99.90;;;;;;5033539;28;20179;-66
2022/05/19 09:18:26;;;;;;;3.35;3.13;;;31.90;99.90;;;;;;5033088;28;20207;-66
2022/05/19 09:20:56;;;;;;;3.13;2.92;;;32.00;99.90;;;;;;5030406;28;20711;-66
2022/05/19 09:23:23;;;;;;;2.83;2.72;;;32.30;99.90;;;;;;5031758;28;20557;-66
2022/05/19 09:25:58;;;;;;;3.28;2.97;;;32.50;99.90;;;;;;5033005;28;20176;-66
2022/05/19 09:28:23;;;;;;;2.80;2.60;;;32.80;99.90;;;;;;5033319;28;20163;-66
2022/05/19 09:30:54;;;;;;;3.25;3.05;;;33.00;99.90;;;;;;5033178;28;20179;-67
2022/05/19 09:33:28;;;;;;;3.35;3.15;;;33.20;99.90;;;;;;5032965;28;20192;-66
2022/05/19 09:35:58;;;;;;;3.38;3.17;;;33.20;99.90;;;;;;5032432;28;20183;-67
2022/05/19 09:38:35;;;;;;;3.63;3.30;;;33.30;99.90;;;;;;5033023;28;20178;-67
2022/05/19 09:41:07;;;;;;;3.35;2.95;;;33.40;99.90;;;;;;5032120;28;20207;-67
2022/05/19 09:43:36;;;;;;;3.42;3.13;;;33.50;99.90;;;;;;5033416;28;20207;-65
2022/05/19 09:46:14;;;;;;;3.20;3.00;;;33.60;99.90;;;;;;5033061;28;20171;-67
2022/05/19 09:49:02;;;;;;;2.92;2.72;;;33.50;99.90;;;;;;5033067;28;20172;-67
2022/05/19 09:51:43;;;;;;;3.20;3.00;;;33.50;99.90;;;;;;5033476;28;20237;-65
2022/05/19 09:54:13;;;;;;;3.55;3.03;;;33.50;99.90;;;;;;5032441;28;20199;-66
2022/05/19 09:56:48;;;;;;;3.25;3.05;;;33.60;99.90;;;;;;5032881;28;20186;-67
2022/05/19 09:59:18;;;;;;;3.17;3.03;;;33.50;99.90;;;;;;5032607;28;20187;-65
2022/05/19 10:01:48;;;;;;;3.60;3.40;;;33.40;99.90;;;;;;5032646;28;20207;-65
2022/05/19 10:04:26;;;;;;;3.10;2.83;;;33.20;99.90;;;;;;5032181;28;20191;-65
2022/05/19 10:06:56;;;;;;;3.17;2.97;;;33.10;99.90;;;;;;5032664;28;20171;-65
2022/05/19 10:09:31;;;;;;;3.05;2.85;;;32.90;99.90;;;;;;5032500;28;20545;-66
2022/05/19 10:12:08;;;;;;;2.88;2.70;;;32.80;99.90;;;;;;5032865;28;20317;-65
2022/05/19 10:14:35;;;;;;;4.20;3.97;;;32.40;99.90;;;;;;5031958;28;20278;-66
2022/05/19 10:17:25;;;;;;;3.30;3.10;;;31.80;99.90;;;;;;5032045;28;20589;-67
2022/05/19 10:19:51;;;;;;;3.72;3.42;;;31.20;99.90;;;;;;5032248;28;20608;-66
2022/05/19 10:22:47;;;;;;;3.78;3.58;;;30.60;99.90;;;;;;5032329;28;20286;-65
2022/05/19 10:25:31;;;;;;;3.50;3.30;;;30.10;99.90;;;;;;5029930;28;20207;-65
2022/05/19 10:31:28;;;;;;;3.50;3.30;;;30.30;99.90;;;;;;5025503;28;20233;-66
2022/05/19 10:34:05;;;;;;;3.30;3.10;;;30.70;99.90;;;;;;5031771;28;20195;-66
2022/05/19 10:37:03;;;;;;;3.72;3.53;;;30.80;99.90;;;;;;5031881;28;20601;-65
2022/05/19 10:39:58;;;;;;;3.00;2.80;;;31.00;99.90;;;;;;5017943;28;20270;-66
2022/05/19 10:42:36;;;;;;;3.20;3.00;;;31.60;99.90;;;;;;4994831;28;20860;-66
2022/05/19 10:45:17;;;;;;;2.92;2.83;;;32.00;99.90;;;;;;5031727;28;20237;-66
2022/05/19 10:48:04;;;;;;;3.20;3.00;;;32.20;99.90;;;;;;5031060;28;20258;-66
2022/05/19 10:50:33;;;;;;;3.40;3.20;;;32.40;99.90;;;;;;5031915;28;20179;-66
2022/05/19 10:53:23;;;;;;;3.47;3.28;;;32.50;99.90;;;;;;5031336;28;20233;-66
2022/05/19 10:56:08;;;;;;;2.85;2.70;;;32.80;99.90;;;;;;5031419;28;20230;-66
2022/05/19 10:58:46;;;;;;;3.22;2.92;;;33.30;99.90;;;;;;5030319;28;20171;-66
2022/05/19 11:01:26;;;;;;;3.15;2.95;;;33.80;99.90;;;;;;5031180;28;20202;-66
2022/05/19 11:04:13;;;;;;;2.60;2.50;;;34.10;99.90;;;;;;5030853;28;20203;-67
2022/05/19 11:06:50;;;;;;;3.38;3.17;;;34.30;99.90;;;;;;5031219;28;20175;-66
2022/05/19 11:09:16;;;;;;;3.25;3.05;;;34.30;99.90;;;;;;5031456;28;20183;-66
2022/05/19 11:11:55;;;;;;;2.85;2.75;;;34.00;99.90;;;;;;5031514;28;20538;-67
2022/05/19 11:14:39;;;;;;;3.15;2.97;;;34.00;99.90;;;;;;5030995;28;20213;-66
2022/05/19 11:17:17;;;;;;;2.65;2.55;;;34.20;99.90;;;;;;5031013;28;20648;-66
2022/05/19 11:19:53;;;;;;;2.65;2.55;;;33.70;99.90;;;;;;5031359;28;20202;-66
2022/05/19 11:22:25;;;;;;;3.08;2.88;;;33.20;99.90;;;;;;5030805;28;20680;-66
2022/05/19 11:27:50;;;;;;;3.55;3.35;;;32.50;99.90;;;;;;5031622;28;20281;-67
2022/05/19 11:30:24;;;;;;;3.30;3.10;;;32.00;99.90;;;;;;5031058;28;20661;-66
2022/05/19 11:32:57;;;;;;;5.55;3.47;;;31.80;99.90;;;;;;5031077;28;20231;-66
2022/05/19 11:35:50;;;;;;;3.35;3.15;;;31.90;99.90;;;;;;5031126;28;20178;-67
2022/05/19 11:38:26;;;;;;;3.50;3.30;;;32.10;99.90;;;;;;5015712;28;20175;-66
2022/05/19 11:41:10;;;;;;;3.20;3.00;;;32.10;99.90;;;;;;5031062;28;20652;-66
2022/05/19 11:43:45;;;;;;;3.63;3.33;;;32.00;99.90;;;;;;5030899;28;20214;-66
2022/05/19 11:46:20;;;;;;;2.92;2.78;;;31.80;99.90;;;;;;5030833;28;20676;-66
2022/05/19 11:55:19;;;;;;;3.30;3.00;;;32.30;99.90;;;;;;5030607;28;20378;-66
2022/05/19 11:58:09;;;;;;;3.55;3.33;;;32.20;99.90;;;;;;5030038;28;20543;-67
2022/05/19 12:00:50;;;;;;;3.70;3.42;;;32.20;99.90;;;;;;5035190;28;20167;-67
2022/05/19 12:03:28;;;;;;;3.40;3.10;;;32.30;99.90;;;;;;5034711;28;20281;-66
2022/05/19 12:06:16;;;;;;;3.08;2.88;;;32.40;99.90;;;;;;5034504;28;20237;-66
2022/05/19 12:09:03;;;;;;;2.80;2.70;;;32.50;99.90;;;;;;5034903;28;20238;-66
2022/05/19 12:12:10;;;;;;;4.10;3.08;;;32.60;99.90;;;;;;5020212;28;20677;-66
2022/05/19 12:14:46;;;;;;;3.53;3.22;;;32.50;99.90;;;;;;5032472;28;20222;-66
2022/05/19 12:17:37;;;;;;;3.00;2.75;;;32.30;99.90;;;;;;5033418;28;20182;-67
2022/05/19 12:20:38;;;;;;;3.50;3.13;;;32.20;99.90;;;;;;5032865;28;20180;-66
2022/05/19 12:23:38;;;;;;;3.58;3.38;;;32.30;99.90;;;;;;5019056;28;20692;-65
2022/05/19 12:26:15;;;;;;;2.92;2.83;;;32.50;99.90;;;;;;5033785;28;20657;-65
2022/05/19 12:29:12;;;;;;;3.95;3.65;;;33.20;99.90;;;;;;5034471;28;20176;-67
2022/05/19 12:31:59;;;;;;;4.00;3.70;;;33.20;99.90;;;;;;5033844;28;20291;-66
2022/05/19 12:34:31;;;;;;;3.65;3.35;;;32.90;99.90;;;;;;5033095;28;20214;-68
2022/05/19 12:37:26;;;;;;;3.60;3.30;;;32.30;99.90;;;;;;5034046;28;20190;-67
2022/05/19 12:39:52;;;;;;;3.30;3.10;;;32.10;99.90;;;;;;5034246;28;20187;-66
2022/05/19 12:42:35;;;;;;;3.15;2.95;;;32.10;99.90;;;;;;5033873;28;20615;-67
2022/05/19 12:45:26;;;;;;;3.65;3.45;;;32.40;99.90;;;;;;5033463;28;20545;-66
2022/05/19 12:47:59;;;;;;;3.30;3.10;;;32.40;99.90;;;;;;5033976;28;20195;-66
2022/05/19 12:50:43;;;;;;;2.97;2.83;;;32.20;99.90;;;;;;5034091;28;20172;-66
2022/05/19 12:53:30;;;;;;;3.00;2.88;;;32.20;99.90;;;;;;5033679;28;20615;-66
2022/05/19 12:55:58;;;;;;;4.55;4.25;;;32.50;99.90;;;;;;5033292;28;20187;-67
2022/05/19 12:58:39;;;;;;;3.20;2.90;;;32.60;99.90;;;;;;5032237;28;20190;-66
2022/05/19 13:01:18;;;;;;;3.03;2.92;;;32.60;99.90;;;;;;5034958;28;20203;-66
2022/05/19 13:03:49;;;;;;;4.32;3.30;;;32.50;99.90;;;;;;5052706;28;20203;-66
2022/05/19 13:06:15;;;;;;;3.70;3.50;;;32.20;99.90;;;;;;5040848;28;20195;-66
2022/05/19 13:08:54;;;;;;;3.53;3.33;;;32.10;99.90;;;;;;5033930;28;20191;-66
2022/05/19 13:11:27;;;;;;;3.80;3.50;;;31.80;99.90;;;;;;5032562;28;20214;-67
2022/05/19 13:13:59;;;;;;;4.45;3.67;;;31.60;99.90;;;;;;5033461;28;20195;-65
2022/05/19 13:16:42;;;;;;;4.85;4.50;;;30.50;99.90;;;;;;5033450;28;20176;-66
2022/05/19 13:19:43;;;;;;;9.70;9.00;;;28.00;99.90;;;;;;5033054;28;20271;-66
2022/05/19 13:22:19;;;;;;;8.48;8.07;;;24.10;99.90;;;;;;4977092;28;20199;-69
2022/05/19 13:24:46;;;;;;;7.78;7.22;;;21.20;99.90;;;;;;5026449;28;20750;-68
2022/05/19 13:30:26;;;;;;;5.43;4.93;;;19.50;99.90;;;;;;5022726;28;20174;-67
2022/05/19 13:33:03;;;;;;;4.50;4.30;;;19.00;99.90;;;;;;5031929;28;20191;-70